Superfast Xi — SYCF — position and weather

sailwx.info

Track history (hours):
 
Tides and Currents Weather Stations Pressure Air Temp Water Temp Dewpoint Dewpoint Depression Visibility Wind Speed Wind Dir Waves Ship Positions

Superfast Xi

Last reported at 2017-Jun-23 18:11 UTC. Time now 2017-Jun-25 05:26 UTC.
Position N 42°13' E 016°00'.

Length 200 m; draft 6.4 m.

Type: Passenger vessel. MMSI: 239918000.

Date/timePositionNaut miles runAvg speedWind from/ knotsBaromVisibWave heightAir tempDewpointWater temp
2017-Jun-23 18:11N 42°13' E 016°00'424.1
2017-Jun-23 18:00N 42°16' E 015°56'1223.9
2017-Jun-23 17:30N 42°24' E 015°44'1323.7
2017-Jun-23 16:57N 42°33' E 015°31'1123.7
2017-Jun-23 16:30N 42°40' E 015°21'1223.8
2017-Jun-23 16:00N 42°48' E 015°08'1324.0
2017-Jun-23 15:28N 42°57' E 014°55'1224.0
2017-Jun-23 14:59N 43°04' E 014°43'2323.8
2017-Jun-23 14:00N 43°20' E 014°20'1223.9
2017-Jun-23 13:31N 43°28' E 014°08'1223.9
2017-Jun-23 13:00N 43°36' E 013°55'1020.7
2017-Jun-23 12:30N 43°41' E 013°43'1018.4
2017-Jun-23 11:58N 43°38' E 013°30'1 0.9
2017-Jun-23 10:44N 43°37' E 013°30'0 0.0
2017-Jun-22 16:57N 43°37' E 013°30'34 8.6
2017-Jun-22 13:01N 43°29' E 014°15'623.5
2017-Jun-22 12:45N 43°25' E 014°23'94 2.2
2017-Jun-20 18:04N 42°18' E 015°52'524.5
2017-Jun-20 17:51N 42°21' E 015°46'1524.3
2017-Jun-20 17:15N 42°31' E 015°32'924.1
2017-Jun-20 16:51N 42°37' E 015°22'1124.0
2017-Jun-20 16:25N 42°45' E 015°12'1024.2
2017-Jun-20 16:00N 42°51' E 015°01'1224.1
2017-Jun-20 15:30N 42°59' E 014°49'1324.0
2017-Jun-20 14:59N 43°08' E 014°37'1124.1
2017-Jun-20 14:30N 43°15' E 014°25'2424.1
2017-Jun-20 13:30N 43°32' E 014°00'1919.8
2017-Jun-20 12:34N 43°40' E 013°38'218.0
2017-Jun-20 12:28N 43°40' E 013°35'  
2017-Jun-17 01:07N 40°32' E 018°55'  
Track history (hours):
 
Tides and Currents Weather Stations Pressure Air Temp Water Temp Dewpoint Dewpoint Depression Visibility Wind Speed Wind Dir Waves Ship Positions

Superfast Xi

Last reported at 2017-Jun-23 18:11 UTC. Time now 2017-Jun-25 05:26 UTC.
Position N 42°13' E 016°00'.

Length 200 m; draft 6.4 m.

Type: Passenger vessel. MMSI: 239918000.

Date/timePositionNaut miles runAvg speedWind from/ knotsBaromVisibWave heightAir tempDewpointWater temp
2017-Jun-23 18:11N 42°13' E 016°00'424.1
2017-Jun-23 18:00N 42°16' E 015°56'1223.9
2017-Jun-23 17:30N 42°24' E 015°44'1323.7
2017-Jun-23 16:57N 42°33' E 015°31'1123.7
2017-Jun-23 16:30N 42°40' E 015°21'1223.8
2017-Jun-23 16:00N 42°48' E 015°08'1324.0
2017-Jun-23 15:28N 42°57' E 014°55'1224.0
2017-Jun-23 14:59N 43°04' E 014°43'2323.8
2017-Jun-23 14:00N 43°20' E 014°20'1223.9
2017-Jun-23 13:31N 43°28' E 014°08'1223.9
2017-Jun-23 13:00N 43°36' E 013°55'1020.7
2017-Jun-23 12:30N 43°41' E 013°43'1018.4
2017-Jun-23 11:58N 43°38' E 013°30'1 0.9
2017-Jun-23 10:44N 43°37' E 013°30'0 0.0
2017-Jun-22 16:57N 43°37' E 013°30'34 8.6
2017-Jun-22 13:01N 43°29' E 014°15'623.5
2017-Jun-22 12:45N 43°25' E 014°23'94 2.2
2017-Jun-20 18:04N 42°18' E 015°52'524.5
2017-Jun-20 17:51N 42°21' E 015°46'1524.3
2017-Jun-20 17:15N 42°31' E 015°32'924.1
2017-Jun-20 16:51N 42°37' E 015°22'1124.0
2017-Jun-20 16:25N 42°45' E 015°12'1024.2
2017-Jun-20 16:00N 42°51' E 015°01'1224.1
2017-Jun-20 15:30N 42°59' E 014°49'1324.0
2017-Jun-20 14:59N 43°08' E 014°37'1124.1
2017-Jun-20 14:30N 43°15' E 014°25'2424.1
2017-Jun-20 13:30N 43°32' E 014°00'1919.8
2017-Jun-20 12:34N 43°40' E 013°38'218.0
2017-Jun-20 12:28N 43°40' E 013°35'  
2017-Jun-17 01:07N 40°32' E 018°55'  

Dump ship's entire track history